createdAt,value
2019-04-25T00:00:24.700Z,34.06
2019-04-25T00:01:03.336Z,34.05
2019-04-25T00:01:44.657Z,34.08
2019-04-25T00:02:34.478Z,34.13
2019-04-25T00:03:12.211Z,34.16
2019-04-25T00:03:48.422Z,34.25
2019-04-25T00:04:24.533Z,34.18
2019-04-25T00:05:01.335Z,34.16
2019-04-25T00:05:38.765Z,34.18
2019-04-25T00:06:15.924Z,34.06
2019-04-25T00:06:52.238Z,34.13
2019-04-25T00:07:28.639Z,34.15
2019-04-25T00:08:05.196Z,34.12
2019-04-25T00:08:43.074Z,34.11
2019-04-25T00:09:21.914Z,34.08
2019-04-25T00:09:58.087Z,34.09
2019-04-25T00:10:34.125Z,34.11
2019-04-25T00:11:11.674Z,34.11
2019-04-25T00:11:49.004Z,34.16
2019-04-25T00:12:25.127Z,34.20
2019-04-25T00:13:03.587Z,34.09
2019-04-25T00:13:39.737Z,34.17
2019-04-25T00:14:16.093Z,34.09
2019-04-25T00:14:52.210Z,34.05
2019-04-25T00:15:29.474Z,34.12
2019-04-25T00:16:06.464Z,34.05
2019-04-25T00:16:45.132Z,34.07
2019-04-25T00:17:21.502Z,34.19
2019-04-25T00:17:57.548Z,34.24
2019-04-25T00:18:33.665Z,34.18
2019-04-25T00:19:09.805Z,34.21
2019-04-25T00:19:46.438Z,34.15
2019-04-25T00:20:24.777Z,34.19
2019-04-25T00:21:02.447Z,34.27
2019-04-25T00:21:40.911Z,34.27
2019-04-25T00:22:22.332Z,34.27
2019-04-25T00:23:01.916Z,34.25
2019-04-25T00:23:39.369Z,34.34
2019-04-25T00:24:23.818Z,34.36
2019-04-25T00:25:15.099Z,34.38
2019-04-25T00:25:52.807Z,34.36
2019-04-25T00:26:33.489Z,34.35
2019-04-25T00:27:08.990Z,34.35
2019-04-25T00:27:46.019Z,34.65
2019-04-25T00:28:22.320Z,34.64
2019-04-25T00:28:58.422Z,34.60
2019-04-25T00:29:34.679Z,34.61
2019-04-25T00:30:11.329Z,34.48
2019-04-25T00:30:48.067Z,34.30
2019-04-25T00:31:26.040Z,34.23
2019-04-25T00:32:02.235Z,34.19
2019-04-25T00:32:38.345Z,34.25
2019-04-25T00:33:14.472Z,34.19
2019-04-25T00:33:52.493Z,34.19
2019-04-25T00:34:28.405Z,34.17
2019-04-25T00:35:05.798Z,34.12
2019-04-25T00:35:43.525Z,34.08
2019-04-25T00:36:19.751Z,34.14
2019-04-25T00:36:55.831Z,34.02
2019-04-25T00:37:32.309Z,34.12
2019-04-25T00:38:08.465Z,34.04
2019-04-25T00:38:46.568Z,34.08
2019-04-25T00:39:22.519Z,34.04
2019-04-25T00:39:58.597Z,33.99
2019-04-25T00:40:35.026Z,33.94
2019-04-25T00:41:11.607Z,33.90
2019-04-25T00:41:47.793Z,33.92
2019-04-25T00:42:23.888Z,33.91
2019-04-25T00:43:01.529Z,33.86
2019-04-25T00:43:37.722Z,33.88
2019-04-25T00:44:13.825Z,33.93
2019-04-25T00:44:51.278Z,33.91
2019-04-25T00:45:27.613Z,33.87
2019-04-25T00:46:03.758Z,33.89
2019-04-25T00:46:39.803Z,33.88
2019-04-25T00:47:15.925Z,33.88
2019-04-25T00:47:52.897Z,33.90
2019-04-25T00:48:29.038Z,33.88
2019-04-25T00:49:05.061Z,33.96
2019-04-25T00:49:43.839Z,33.94
2019-04-25T00:50:19.710Z,33.84
2019-04-25T00:50:55.757Z,33.95
2019-04-25T00:51:31.874Z,33.88
2019-04-25T00:52:07.925Z,33.87
2019-04-25T00:52:44.866Z,33.87
2019-04-25T00:53:21.255Z,33.81
2019-04-25T00:53:57.315Z,33.82
2019-04-25T00:54:33.360Z,33.82
2019-04-25T00:55:09.668Z,33.88
2019-04-25T00:55:46.440Z,33.82
2019-04-25T00:56:22.527Z,33.86
2019-04-25T00:56:58.663Z,33.95
2019-04-25T00:57:35.241Z,34.01
2019-04-25T00:58:12.932Z,34.00
2019-04-25T00:59:02.672Z,33.95
2019-04-25T00:59:41.848Z,34.01
2019-04-25T01:00:35.721Z,34.16
2019-04-25T01:01:25.291Z,34.13
2019-04-25T01:02:11.878Z,34.23
2019-04-25T01:02:49.532Z,34.28
2019-04-25T01:03:33.002Z,34.41
2019-04-25T01:04:09.055Z,34.25
2019-04-25T01:04:45.245Z,34.35
2019-04-25T01:05:21.683Z,34.32
2019-04-25T01:05:57.720Z,34.42
2019-04-25T01:06:33.755Z,34.46
2019-04-25T01:07:09.795Z,34.42
2019-04-25T01:07:45.866Z,34.51
2019-04-25T01:08:22.050Z,34.59
2019-04-25T01:08:59.057Z,34.60
2019-04-25T01:09:35.262Z,34.66
2019-04-25T01:10:13.374Z,34.72
2019-04-25T01:10:50.524Z,34.80
2019-04-25T01:11:27.198Z,34.89
2019-04-25T01:12:04.113Z,34.96
2019-04-25T01:12:41.708Z,34.99
2019-04-25T01:13:17.823Z,35.03
2019-04-25T01:13:54.454Z,35.05
2019-04-25T01:14:31.933Z,35.10
2019-04-25T01:15:09.671Z,35.14
2019-04-25T01:15:46.403Z,35.31
2019-04-25T01:16:22.409Z,35.36
2019-04-25T01:16:58.524Z,35.36
2019-04-25T01:17:34.542Z,35.39
2019-04-25T01:18:12.209Z,35.46
2019-04-25T01:18:48.745Z,35.56
2019-04-25T01:19:24.868Z,35.70
2019-04-25T01:20:00.898Z,35.77
2019-04-25T01:20:37.016Z,35.76
2019-04-25T01:21:14.140Z,35.76
2019-04-25T01:21:51.290Z,35.81
2019-04-25T01:22:27.441Z,35.86
2019-04-25T01:23:03.811Z,35.92
2019-04-25T01:23:39.892Z,35.92
2019-04-25T01:24:15.980Z,36.03
2019-04-25T01:24:52.020Z,36.07
2019-04-25T01:25:38.545Z,36.03
2019-04-25T01:26:06.419Z,36.12
2019-04-25T01:26:43.856Z,36.20
2019-04-25T01:27:20.003Z,36.30
2019-04-25T01:27:56.027Z,36.38
2019-04-25T01:28:33.565Z,36.32
2019-04-25T01:29:10.482Z,36.44
2019-04-25T01:29:46.684Z,36.49
2019-04-25T01:30:24.361Z,36.46
2019-04-25T01:31:00.760Z,36.49
2019-04-25T01:31:36.779Z,36.60
2019-04-25T01:32:14.452Z,36.63
2019-04-25T01:32:50.546Z,36.72
2019-04-25T01:33:26.969Z,36.70
2019-04-25T01:34:04.660Z,36.80
2019-04-25T01:34:44.169Z,36.87
2019-04-25T01:35:27.605Z,37.01
2019-04-25T01:36:07.824Z,37.15
2019-04-25T01:36:51.235Z,37.33
2019-04-25T01:37:28.900Z,37.44
2019-04-25T01:38:09.496Z,37.54
2019-04-25T01:38:56.147Z,37.60
2019-04-25T01:39:48.946Z,37.70
2019-04-25T01:40:35.560Z,37.91
2019-04-25T01:41:31.308Z,38.14
2019-04-25T01:42:15.012Z,38.36
2019-04-25T01:43:04.732Z,38.62
2019-04-25T01:43:57.241Z,38.69
2019-04-25T01:44:34.055Z,38.84
2019-04-25T01:45:10.475Z,39.18
2019-04-25T01:45:48.079Z,39.20
2019-04-25T01:46:25.589Z,39.11
2019-04-25T01:47:01.617Z,39.19
2019-04-25T01:47:37.643Z,39.13
2019-04-25T01:48:13.786Z,39.04
2019-04-25T01:48:50.170Z,38.99
2019-04-25T01:49:26.192Z,38.95
2019-04-25T01:50:03.788Z,38.94
2019-04-25T01:50:40.205Z,38.89
2019-04-25T01:51:16.272Z,39.01
2019-04-25T01:51:54.067Z,39.06
2019-04-25T01:52:30.052Z,38.92
2019-04-25T01:53:06.083Z,38.92
2019-04-25T01:53:42.126Z,38.92
2019-04-25T01:54:18.166Z,38.94
2019-04-25T01:54:55.663Z,38.92
2019-04-25T01:55:33.518Z,39.18
2019-04-25T01:56:09.618Z,39.15
2019-04-25T01:56:45.780Z,39.08
2019-04-25T01:57:21.813Z,38.96
2019-04-25T01:57:57.839Z,38.98
2019-04-25T01:58:33.940Z,39.01
2019-04-25T01:59:09.954Z,39.03
2019-04-25T01:59:46.157Z,38.90
2019-04-25T02:00:33.278Z,38.99
2019-04-25T02:01:09.547Z,39.02
2019-04-25T02:01:45.834Z,38.99
2019-04-25T02:02:23.665Z,39.00
2019-04-25T02:02:59.745Z,39.00
2019-04-25T02:03:35.864Z,39.03
2019-04-25T02:04:13.234Z,38.92
2019-04-25T02:04:49.355Z,38.80
2019-04-25T02:05:25.459Z,38.87
2019-04-25T02:06:01.745Z,39.28
2019-04-25T02:06:37.760Z,39.04
2019-04-25T02:07:13.871Z,38.85
2019-04-25T02:07:51.377Z,38.83
2019-04-25T02:08:27.556Z,39.03
2019-04-25T02:09:05.902Z,39.00
2019-04-25T02:09:43.660Z,38.75
2019-04-25T02:10:20.029Z,38.90
2019-04-25T02:10:58.141Z,39.06
2019-04-25T02:11:48.608Z,38.81
2019-04-25T02:12:27.325Z,38.82
2019-04-25T02:13:07.980Z,38.92
2019-04-25T02:13:43.789Z,38.69
2019-04-25T02:14:19.638Z,39.00
2019-04-25T02:14:56.625Z,38.94
2019-04-25T02:15:33.498Z,39.06
2019-04-25T02:16:09.860Z,38.94
2019-04-25T02:16:45.966Z,39.05
2019-04-25T02:17:24.066Z,39.08
2019-04-25T02:18:00.456Z,38.91
2019-04-25T02:18:37.138Z,38.64
2019-04-25T02:19:14.499Z,38.60
2019-04-25T02:19:52.002Z,38.64
2019-04-25T02:20:28.173Z,38.57
2019-04-25T02:21:04.538Z,38.53
2019-04-25T02:21:40.584Z,38.69
2019-04-25T02:22:16.611Z,38.82
2019-04-25T02:22:54.472Z,38.96
2019-04-25T02:23:30.411Z,39.14
2019-04-25T02:24:06.515Z,39.19
2019-04-25T02:24:43.700Z,39.07
2019-04-25T02:25:19.753Z,39.03
2019-04-25T02:26:08.951Z,39.07
2019-04-25T02:26:34.077Z,39.06
2019-04-25T02:27:10.286Z,39.17
2019-04-25T02:27:46.308Z,39.20
2019-04-25T02:28:24.039Z,39.17
2019-04-25T02:29:00.576Z,39.08
2019-04-25T02:29:36.634Z,39.04
2019-04-25T02:30:15.527Z,38.94
2019-04-25T02:30:54.727Z,38.84
2019-04-25T02:31:29.473Z,38.93
2019-04-25T02:32:09.104Z,38.87
2019-04-25T02:32:44.278Z,38.94
2019-04-25T02:33:20.409Z,38.98
2019-04-25T02:33:58.804Z,38.99
2019-04-25T02:34:34.859Z,39.02
2019-04-25T02:35:11.261Z,39.00
2019-04-25T02:35:47.355Z,38.94
2019-04-25T02:36:24.683Z,38.89
2019-04-25T02:37:04.225Z,38.99
2019-04-25T02:37:38.570Z,39.05
2019-04-25T02:38:16.910Z,39.26
2019-04-25T02:38:54.159Z,39.32
2019-04-25T02:39:30.228Z,39.37
2019-04-25T02:40:08.450Z,39.30
2019-04-25T02:40:45.623Z,39.38
2019-04-25T02:41:21.803Z,39.49
2019-04-25T02:42:01.045Z,39.38
2019-04-25T02:42:36.905Z,39.34
2019-04-25T02:43:14.210Z,39.37
2019-04-25T02:43:50.482Z,39.52
2019-04-25T02:44:26.718Z,39.61
2019-04-25T02:45:08.226Z,39.56
2019-04-25T02:45:44.322Z,39.56
2019-04-25T02:46:37.416Z,39.68
2019-04-25T02:47:15.085Z,39.64
2019-04-25T02:48:08.721Z,39.83
2019-04-25T02:49:04.145Z,39.82
2019-04-25T02:49:41.577Z,39.88
2019-04-25T02:50:35.987Z,39.84
2019-04-25T02:51:16.584Z,39.79
2019-04-25T02:51:59.254Z,39.84
2019-04-25T02:52:38.997Z,39.88
2019-04-25T02:53:36.308Z,39.99
2019-04-25T02:54:09.481Z,40.12
2019-04-25T02:54:45.494Z,40.29
2019-04-25T02:55:31.125Z,40.19
2019-04-25T02:55:59.751Z,40.19
2019-04-25T02:56:38.871Z,40.19
2019-04-25T02:57:14.612Z,40.37
2019-04-25T02:57:50.794Z,40.31
2019-04-25T02:58:26.968Z,40.29
2019-04-25T02:59:06.501Z,40.28
2019-04-25T02:59:40.820Z,40.29
2019-04-25T03:00:20.140Z,40.05
2019-04-25T03:01:08.002Z,40.01
2019-04-25T03:01:36.273Z,40.14
2019-04-25T03:02:12.332Z,40.22
2019-04-25T03:02:48.363Z,40.04
2019-04-25T03:03:24.642Z,40.03
2019-04-25T03:04:00.992Z,40.01
2019-04-25T03:04:37.016Z,39.89
2019-04-25T03:05:14.295Z,39.90
2019-04-25T03:05:50.580Z,39.90
2019-04-25T03:06:26.630Z,39.91
2019-04-25T03:07:07.408Z,39.97
2019-04-25T03:07:40.592Z,40.03
2019-04-25T03:08:16.710Z,39.97
2019-04-25T03:08:54.277Z,40.02
2019-04-25T03:09:30.546Z,40.21
2019-04-25T03:10:09.811Z,40.05
2019-04-25T03:10:46.091Z,39.91
2019-04-25T03:11:24.306Z,39.85
2019-04-25T03:11:59.989Z,39.90
2019-04-25T03:12:36.845Z,40.14
2019-04-25T03:13:14.854Z,40.16
2019-04-25T03:13:50.849Z,40.18
2019-04-25T03:14:26.895Z,40.15
2019-04-25T03:15:06.354Z,39.97
2019-04-25T03:15:40.805Z,39.94
2019-04-25T03:16:16.817Z,39.84
2019-04-25T03:16:54.317Z,39.76
2019-04-25T03:17:30.572Z,39.72
2019-04-25T03:18:11.166Z,39.77
2019-04-25T03:18:47.155Z,39.61
2019-04-25T03:19:34.189Z,39.77
2019-04-25T03:20:14.848Z,39.64
2019-04-25T03:20:54.714Z,39.73
2019-04-25T03:21:32.036Z,39.69
2019-04-25T03:22:11.730Z,39.62
2019-04-25T03:22:47.529Z,39.90
2019-04-25T03:23:35.456Z,39.76
2019-04-25T03:24:16.373Z,39.68
2019-04-25T03:24:50.256Z,39.71
2019-04-25T03:25:26.289Z,39.52
2019-04-25T03:26:04.543Z,39.55
2019-04-25T03:26:40.803Z,39.40
2019-04-25T03:27:16.968Z,39.40
2019-04-25T03:27:54.113Z,39.41
2019-04-25T03:28:30.803Z,39.59
2019-04-25T03:29:07.294Z,39.50
2019-04-25T03:29:45.502Z,39.42
2019-04-25T03:30:22.057Z,39.41
2019-04-25T03:31:01.395Z,39.36
2019-04-25T03:31:36.003Z,39.36
2019-04-25T03:32:16.459Z,39.50
2019-04-25T03:32:51.622Z,39.38
2019-04-25T03:33:27.565Z,39.42
2019-04-25T03:34:07.939Z,39.48
2019-04-25T03:34:41.342Z,39.37
2019-04-25T03:35:17.360Z,39.35
2019-04-25T03:35:54.780Z,39.40
2019-04-25T03:36:30.820Z,39.37
2019-04-25T03:37:07.665Z,39.33
2019-04-25T03:37:43.765Z,39.26
2019-04-25T03:38:19.767Z,39.36
2019-04-25T03:38:55.900Z,39.26
2019-04-25T03:39:33.501Z,39.17
2019-04-25T03:40:09.729Z,39.14
2019-04-25T03:40:45.745Z,39.17
2019-04-25T03:41:21.781Z,39.26
2019-04-25T03:41:58.798Z,39.33
2019-04-25T03:42:34.817Z,39.27
2019-04-25T03:43:10.822Z,39.16
2019-04-25T03:43:46.848Z,39.08
2019-04-25T03:44:23.713Z,39.12
2019-04-25T03:45:01.467Z,38.97
2019-04-25T03:45:37.638Z,39.08
2019-04-25T03:46:14.239Z,38.90
2019-04-25T03:46:50.392Z,38.87
2019-04-25T03:47:26.437Z,38.87
2019-04-25T03:48:03.874Z,38.83
2019-04-25T03:48:40.210Z,38.85
2019-04-25T03:49:16.236Z,38.96
2019-04-25T03:49:53.499Z,38.79
2019-04-25T03:50:30.872Z,38.91
2019-04-25T03:51:07.903Z,38.95
2019-04-25T03:51:44.128Z,38.98
2019-04-25T03:52:20.149Z,38.91
2019-04-25T03:52:56.188Z,38.84
2019-04-25T03:53:33.704Z,38.80
2019-04-25T03:54:10.599Z,39.23
2019-04-25T03:54:46.639Z,39.56
2019-04-25T03:55:24.078Z,39.13
2019-04-25T03:56:00.247Z,38.90
2019-04-25T03:56:36.274Z,39.04
2019-04-25T03:57:14.333Z,38.94
2019-04-25T03:57:51.309Z,39.21
2019-04-25T03:58:27.325Z,39.60
2019-04-25T03:59:05.859Z,39.66
2019-04-25T03:59:43.557Z,39.63
2019-04-25T04:00:19.806Z,39.30
2019-04-25T04:00:55.979Z,39.29
2019-04-25T04:01:32.005Z,39.35
2019-04-25T04:02:09.056Z,39.44
2019-04-25T04:02:45.148Z,39.40
2019-04-25T04:03:21.200Z,39.27
2019-04-25T04:03:57.245Z,39.29
2019-04-25T04:04:33.591Z,39.30
2019-04-25T04:05:09.676Z,39.21
2019-04-25T04:05:45.691Z,39.32
2019-04-25T04:06:21.801Z,39.20
2019-04-25T04:06:57.839Z,39.10
2019-04-25T04:07:33.873Z,39.00
2019-04-25T04:08:11.918Z,38.93
2019-04-25T04:08:47.955Z,38.83
2019-04-25T04:09:24.227Z,38.81
2019-04-25T04:10:00.325Z,38.77
2019-04-25T04:10:36.365Z,38.79
2019-04-25T04:11:14.146Z,38.82
2019-04-25T04:11:50.225Z,38.87
2019-04-25T04:12:26.259Z,38.80
2019-04-25T04:13:02.287Z,38.73
2019-04-25T04:13:38.321Z,38.68
2019-04-25T04:14:15.639Z,38.63
2019-04-25T04:14:53.630Z,38.64
2019-04-25T04:15:29.781Z,38.76
2019-04-25T04:16:06.524Z,38.76
2019-04-25T04:16:44.412Z,38.71
2019-04-25T04:17:40.466Z,38.72
2019-04-25T04:18:36.032Z,38.72
2019-04-25T04:19:13.121Z,38.95
2019-04-25T04:19:54.228Z,39.07
2019-04-25T04:20:40.664Z,38.93
2019-04-25T04:21:21.358Z,39.06
2019-04-25T04:21:58.414Z,39.11
2019-04-25T04:22:53.331Z,39.23
2019-04-25T04:23:34.041Z,38.92
2019-04-25T04:24:14.985Z,38.95
2019-04-25T04:24:53.866Z,39.13
2019-04-25T04:25:29.972Z,39.01
2019-04-25T04:26:06.256Z,38.97
2019-04-25T04:26:43.121Z,39.01
2019-04-25T04:27:19.235Z,38.62
2019-04-25T04:27:55.333Z,38.28
2019-04-25T04:28:33.719Z,38.22
2019-04-25T04:29:10.107Z,38.23
2019-04-25T04:29:46.219Z,38.26
2019-04-25T04:30:22.219Z,38.25
2019-04-25T04:30:58.296Z,38.25
2019-04-25T04:31:34.341Z,38.24
2019-04-25T04:32:10.633Z,38.10
2019-04-25T04:32:46.688Z,38.02
2019-04-25T04:33:30.246Z,37.94
2019-04-25T04:34:00.502Z,38.00
2019-04-25T04:34:36.548Z,38.02
2019-04-25T04:35:14.761Z,37.95
2019-04-25T04:35:51.248Z,37.96
2019-04-25T04:36:27.283Z,37.90
2019-04-25T04:37:03.771Z,38.02
2019-04-25T04:37:39.876Z,38.29
2019-04-25T04:38:16.469Z,38.19
2019-04-25T04:38:54.205Z,37.85
2019-04-25T04:39:30.370Z,37.71
2019-04-25T04:40:07.932Z,37.70
2019-04-25T04:40:44.266Z,37.81
2019-04-25T04:41:20.287Z,37.67
2019-04-25T04:41:56.477Z,37.79
2019-04-25T04:42:33.709Z,38.26
2019-04-25T04:43:09.739Z,38.35
2019-04-25T04:43:45.797Z,38.25
2019-04-25T04:44:21.899Z,38.08
2019-04-25T04:44:57.927Z,38.18
2019-04-25T04:45:34.519Z,38.27
2019-04-25T04:46:10.602Z,38.24
2019-04-25T04:46:48.250Z,37.81
2019-04-25T04:47:24.282Z,37.50
2019-04-25T04:48:00.367Z,37.36
2019-04-25T04:48:36.395Z,37.26
2019-04-25T04:49:14.178Z,37.21
2019-04-25T04:49:50.206Z,37.32
2019-04-25T04:50:26.255Z,37.14
2019-04-25T04:51:03.402Z,37.45
2019-04-25T04:51:39.499Z,37.11
2019-04-25T04:52:15.866Z,36.90
2019-04-25T04:52:53.996Z,36.95
2019-04-25T04:53:30.182Z,37.00
2019-04-25T04:54:07.167Z,37.52
2019-04-25T04:54:43.931Z,37.16
2019-04-25T04:55:20.073Z,37.33
2019-04-25T04:55:56.168Z,37.03
2019-04-25T04:56:34.040Z,36.90
2019-04-25T04:57:25.717Z,36.93
2019-04-25T04:57:47.666Z,36.80
2019-04-25T04:58:25.122Z,36.60
2019-04-25T04:59:01.207Z,36.59
2019-04-25T04:59:37.239Z,36.55
2019-04-25T05:00:14.558Z,36.50
2019-04-25T05:00:51.118Z,37.00
2019-04-25T05:01:28.951Z,36.75
2019-04-25T05:02:14.628Z,36.46
2019-04-25T05:03:00.552Z,36.51
2019-04-25T05:03:38.210Z,36.65
2019-04-25T05:04:16.268Z,36.50
2019-04-25T05:05:06.593Z,36.17
2019-04-25T05:06:00.399Z,36.02
2019-04-25T05:06:41.014Z,36.47
2019-04-25T05:07:25.334Z,36.80
2019-04-25T05:08:09.006Z,36.82
2019-04-25T05:08:46.710Z,36.85
2019-04-25T05:09:24.354Z,36.75
2019-04-25T05:10:00.389Z,36.64
2019-04-25T05:10:36.443Z,36.45
2019-04-25T05:11:15.226Z,36.47
2019-04-25T05:11:50.251Z,36.35
2019-04-25T05:12:26.264Z,36.20
2019-04-25T05:13:02.314Z,36.21
2019-04-25T05:13:38.325Z,36.08
2019-04-25T05:14:15.351Z,35.92
2019-04-25T05:14:53.291Z,35.90
2019-04-25T05:15:29.689Z,35.87
2019-04-25T05:16:05.730Z,35.98
2019-04-25T05:16:43.236Z,36.08
2019-04-25T05:17:19.699Z,36.02
2019-04-25T05:17:55.753Z,35.65
2019-04-25T05:18:37.085Z,35.33
2019-04-25T05:19:09.489Z,35.75
2019-04-25T05:19:45.513Z,35.55
2019-04-25T05:20:22.204Z,35.19
2019-04-25T05:20:58.269Z,35.08
2019-04-25T05:21:34.300Z,35.40
2019-04-25T05:22:10.353Z,35.29
2019-04-25T05:22:46.372Z,35.03
2019-04-25T05:23:23.439Z,35.22
2019-04-25T05:24:01.124Z,35.01
2019-04-25T05:24:37.171Z,34.87
2019-04-25T05:25:15.291Z,34.70
2019-04-25T05:25:50.934Z,34.45
2019-04-25T05:26:27.047Z,34.31
2019-04-25T05:27:03.864Z,34.09
2019-04-25T05:27:56.778Z,34.23
2019-04-25T05:28:18.515Z,34.09
2019-04-25T05:28:55.296Z,34.17
2019-04-25T05:29:31.490Z,33.99
2019-04-25T05:30:09.614Z,34.03
2019-04-25T05:30:47.323Z,33.74
2019-04-25T05:31:27.462Z,33.40
2019-04-25T05:32:04.253Z,33.37
2019-04-25T05:32:40.462Z,33.35
2019-04-25T05:33:19.101Z,33.07
2019-04-25T05:33:54.250Z,32.75
2019-04-25T05:34:30.287Z,32.68
2019-04-25T05:35:06.791Z,32.74
2019-04-25T05:35:44.057Z,32.58
2019-04-25T05:36:21.823Z,32.37
2019-04-25T05:36:57.918Z,32.42
2019-04-25T05:37:33.969Z,32.39
2019-04-25T05:38:10.035Z,32.10
2019-04-25T05:38:46.061Z,31.92
2019-04-25T05:39:23.729Z,32.22
2019-04-25T05:39:59.829Z,32.15
2019-04-25T05:40:37.512Z,31.63
2019-04-25T05:41:18.215Z,31.51
2019-04-25T05:41:58.566Z,31.48
2019-04-25T05:42:51.317Z,31.20
2019-04-25T05:43:28.935Z,31.03
2019-04-25T05:44:05.249Z,30.61
2019-04-25T05:44:41.261Z,30.49
2019-04-25T05:45:19.843Z,30.33
2019-04-25T05:45:55.973Z,30.16
2019-04-25T05:46:32.012Z,30.21
2019-04-25T05:47:08.032Z,30.17
2019-04-25T05:47:44.336Z,29.69
2019-04-25T05:48:21.089Z,29.50
2019-04-25T05:48:57.276Z,29.36
2019-04-25T05:49:34.272Z,29.33
2019-04-25T05:50:10.377Z,29.47
2019-04-25T05:50:46.390Z,28.99
2019-04-25T05:51:23.953Z,28.84
2019-04-25T05:52:00.186Z,28.86
2019-04-25T05:52:36.341Z,28.78
2019-04-25T05:53:14.098Z,28.55
2019-04-25T05:53:51.175Z,28.39
2019-04-25T05:54:27.254Z,28.40
2019-04-25T05:55:03.981Z,28.27
2019-04-25T05:55:40.083Z,28.28
2019-04-25T05:56:16.516Z,28.47
2019-04-25T05:56:53.761Z,28.62
2019-04-25T05:57:29.847Z,28.29
2019-04-25T05:58:05.868Z,28.04
2019-04-25T05:58:43.862Z,28.09
2019-04-25T05:59:19.619Z,28.17
2019-04-25T05:59:55.716Z,28.06
2019-04-25T06:00:31.748Z,28.06
2019-04-25T06:01:07.806Z,27.77
2019-04-25T06:01:43.836Z,27.96
2019-04-25T06:02:19.858Z,28.30
2019-04-25T06:02:55.978Z,28.00
2019-04-25T06:03:33.822Z,28.08
2019-04-25T06:04:09.734Z,27.85
2019-04-25T06:04:45.769Z,27.38
2019-04-25T06:05:23.429Z,27.07
2019-04-25T06:05:59.608Z,26.80
2019-04-25T06:06:36.812Z,26.47
2019-04-25T06:07:14.479Z,26.28
2019-04-25T06:07:50.602Z,26.18
2019-04-25T06:08:28.273Z,26.02
2019-04-25T06:09:24.067Z,25.85
2019-04-25T06:10:18.104Z,25.74
2019-04-25T06:10:58.819Z,25.74
2019-04-25T06:11:35.895Z,25.88
2019-04-25T06:12:28.407Z,25.77
2019-04-25T06:13:18.152Z,25.39
2019-04-25T06:14:05.608Z,25.35
2019-04-25T06:14:43.299Z,25.06
2019-04-25T06:15:21.680Z,24.88
2019-04-25T06:16:00.022Z,24.89
2019-04-25T06:16:37.483Z,24.70
2019-04-25T06:17:32.131Z,24.47
2019-04-25T06:18:16.215Z,24.32
2019-04-25T06:19:11.297Z,24.17
2019-04-25T06:19:43.436Z,24.04
2019-04-25T06:20:21.526Z,24.06
2019-04-25T06:20:57.914Z,24.08
2019-04-25T06:21:33.961Z,24.14
2019-04-25T06:22:18.439Z,24.11
2019-04-25T06:22:59.779Z,23.98
2019-04-25T06:23:54.416Z,23.79
2019-04-25T06:24:33.895Z,23.78
2019-04-25T06:25:13.768Z,23.66
2019-04-25T06:25:49.401Z,23.71
2019-04-25T06:26:34.127Z,23.82
2019-04-25T06:27:16.891Z,23.72
2019-04-25T06:27:59.220Z,23.71
2019-04-25T06:28:35.403Z,23.36
2019-04-25T06:29:11.422Z,23.19
2019-04-25T06:29:58.094Z,23.05
2019-04-25T06:30:28.366Z,23.05
2019-04-25T06:31:09.920Z,22.94
2019-04-25T06:31:43.803Z,22.95
2019-04-25T06:32:21.385Z,22.82
2019-04-25T06:32:57.491Z,23.04
2019-04-25T06:33:33.958Z,23.04
2019-04-25T06:34:10.116Z,22.66
2019-04-25T06:34:46.192Z,22.57
2019-04-25T06:35:24.489Z,22.41
2019-04-25T06:36:00.021Z,22.70
2019-04-25T06:36:36.060Z,22.70
2019-04-25T06:37:13.763Z,22.24
2019-04-25T06:37:49.893Z,22.08
2019-04-25T06:38:27.244Z,22.23
2019-04-25T06:39:04.164Z,22.10
2019-04-25T06:39:41.776Z,21.96
2019-04-25T06:40:17.890Z,21.78
2019-04-25T06:40:53.915Z,21.62
2019-04-25T06:41:29.926Z,21.35
2019-04-25T06:42:05.947Z,21.44
2019-04-25T06:42:43.422Z,21.37
2019-04-25T06:43:19.649Z,21.36
2019-04-25T06:43:57.301Z,21.41
2019-04-25T06:44:50.893Z,21.26
2019-04-25T06:45:28.916Z,21.23
2019-04-25T06:46:15.308Z,21.07
2019-04-25T06:46:53.529Z,20.92
2019-04-25T06:47:36.986Z,20.82
2019-04-25T06:48:25.014Z,20.75
2019-04-25T06:49:03.531Z,20.65
2019-04-25T06:49:41.290Z,20.74
2019-04-25T06:50:17.356Z,20.51
2019-04-25T06:50:53.786Z,20.45
2019-04-25T06:51:49.516Z,20.16
2019-04-25T06:52:29.475Z,20.13
2019-04-25T06:53:03.505Z,19.86
2019-04-25T06:53:41.278Z,20.10
2019-04-25T06:54:17.321Z,20.34
2019-04-25T06:54:53.367Z,20.45
2019-04-25T06:55:30.183Z,20.60
2019-04-25T06:56:06.426Z,20.49
2019-04-25T06:56:43.470Z,20.60
2019-04-25T06:57:19.645Z,20.72
2019-04-25T06:57:55.872Z,20.73
2019-04-25T06:58:32.234Z,20.93
2019-04-25T06:59:09.931Z,20.91
2019-04-25T06:59:45.961Z,20.90
2019-04-25T07:00:24.261Z,21.06
2019-04-25T07:01:01.059Z,20.93
2019-04-25T07:01:38.313Z,21.12
2019-04-25T07:02:14.767Z,21.02
2019-04-25T07:02:50.816Z,21.03
2019-04-25T07:03:27.131Z,21.20
2019-04-25T07:04:04.061Z,20.99
2019-04-25T07:04:41.196Z,20.89
2019-04-25T07:05:26.616Z,20.99
2019-04-25T07:05:55.291Z,20.93
2019-04-25T07:06:31.416Z,20.84
2019-04-25T07:07:12.382Z,20.62
2019-04-25T07:07:45.481Z,20.58
2019-04-25T07:08:25.428Z,20.47
2019-04-25T07:09:00.336Z,20.55
2019-04-25T07:09:36.685Z,20.46
2019-04-25T07:10:13.352Z,20.46
2019-04-25T07:10:49.484Z,20.56
2019-04-25T07:11:26.787Z,20.73
2019-04-25T07:12:03.555Z,20.98
2019-04-25T07:12:39.798Z,21.06
2019-04-25T07:13:15.832Z,21.12
2019-04-25T07:13:53.590Z,21.05
2019-04-25T07:14:29.764Z,21.15
2019-04-25T07:15:09.818Z,21.04
2019-04-25T07:15:45.987Z,21.19
2019-04-25T07:16:24.054Z,21.22
2019-04-25T07:16:59.720Z,20.86
2019-04-25T07:17:36.041Z,20.89
2019-04-25T07:18:13.958Z,20.91
2019-04-25T07:18:50.073Z,20.97
2019-04-25T07:19:27.091Z,20.95
2019-04-25T07:20:05.677Z,21.01
2019-04-25T07:20:43.211Z,20.83
2019-04-25T07:21:20.359Z,20.74
2019-04-25T07:21:56.482Z,20.64
2019-04-25T07:22:34.774Z,20.60
2019-04-25T07:23:10.310Z,20.57
2019-04-25T07:23:46.458Z,20.72
2019-04-25T07:24:23.763Z,20.89
2019-04-25T07:25:00.312Z,20.86
2019-04-25T07:25:38.044Z,20.83
2019-04-25T07:26:16.055Z,20.34
2019-04-25T07:27:10.127Z,20.18
2019-04-25T07:27:50.771Z,20.24
2019-04-25T07:28:31.472Z,20.05
2019-04-25T07:29:14.927Z,20.01
2019-04-25T07:29:53.872Z,19.73
2019-04-25T07:30:49.914Z,19.73
2019-04-25T07:31:28.937Z,19.86
2019-04-25T07:32:24.343Z,19.71
2019-04-25T07:33:03.761Z,19.97
2019-04-25T07:33:44.630Z,19.92
2019-04-25T07:34:25.295Z,20.13
2019-04-25T07:35:03.482Z,20.10
2019-04-25T07:35:40.733Z,20.30
2019-04-25T07:36:16.833Z,20.36
2019-04-25T07:36:53.472Z,19.90
2019-04-25T07:37:29.819Z,19.97
2019-04-25T07:38:05.963Z,19.75
2019-04-25T07:38:43.493Z,19.54
2019-04-25T07:39:20.641Z,19.77
2019-04-25T07:39:56.688Z,19.63
2019-04-25T07:40:34.036Z,19.72
2019-04-25T07:41:10.511Z,19.69
2019-04-25T07:41:46.628Z,19.69
2019-04-25T07:42:23.918Z,19.63
2019-04-25T07:43:00.192Z,19.34
2019-04-25T07:43:36.341Z,19.44
2019-04-25T07:44:12.480Z,19.20
2019-04-25T07:44:52.626Z,19.12
2019-04-25T07:45:27.022Z,19.11
2019-04-25T07:46:03.479Z,19.06
2019-04-25T07:46:40.138Z,19.18
2019-04-25T07:47:16.324Z,19.21
2019-04-25T07:47:54.048Z,19.12
2019-04-25T07:48:30.246Z,18.90
2019-04-25T07:49:06.274Z,18.83
2019-04-25T07:49:43.286Z,18.75
2019-04-25T07:50:19.369Z,18.55
2019-04-25T07:50:55.394Z,18.47
2019-04-25T07:51:32.880Z,17.97
2019-04-25T07:52:11.474Z,18.16
2019-04-25T07:52:46.997Z,17.99
2019-04-25T07:53:24.316Z,18.22
2019-04-25T07:54:00.921Z,18.43
2019-04-25T07:54:36.974Z,18.96
2019-04-25T07:55:13.742Z,18.75
2019-04-25T07:55:49.887Z,18.71
2019-04-25T07:56:25.976Z,18.69
2019-04-25T07:57:03.492Z,18.61
2019-04-25T07:57:39.785Z,18.37
2019-04-25T07:58:15.857Z,17.91
2019-04-25T07:58:53.187Z,17.42
2019-04-25T07:59:29.697Z,17.69
2019-04-25T08:00:13.754Z,17.82
2019-04-25T08:00:50.249Z,17.96
2019-04-25T08:01:26.881Z,18.45
2019-04-25T08:02:04.022Z,18.78
2019-04-25T08:02:40.048Z,18.78
2019-04-25T08:03:16.067Z,18.84
2019-04-25T08:03:53.644Z,18.95
2019-04-25T08:04:29.827Z,19.30
2019-04-25T08:05:08.181Z,19.12
2019-04-25T08:05:44.218Z,18.93
2019-04-25T08:06:22.120Z,18.30
2019-04-25T08:06:58.197Z,18.02
2019-04-25T08:07:37.838Z,18.08
2019-04-25T08:08:13.946Z,18.23